Time;durP1;ratioP1;P1;durP2;ratioP2;P2;SDS_P1;SDS_P2;PMS_P1;PMS_P2;Temp;Humidity;BMP_temperature;BMP_pressure;BME280_temperature;BME280_humidity;BME280_pressure;Samples;Min_cycle;Max_cycle;Signal;HPM_P1;HPM_P2
2022/09/30 00:00:40;;;;;;;13.55;9.70;;;;;;;;;;12951965;22;20016;-82
2022/09/30 00:05:40;;;;;;;14.43;9.43;;;;;;;;;;12952290;22;20012;-84
2022/09/30 00:10:42;;;;;;;14.13;9.93;;;;;;;;;;12927805;22;20012;-83
2022/09/30 00:15:45;;;;;;;11.98;9.25;;;;;;;;;;12979312;22;20466;-82
2022/09/30 00:20:47;;;;;;;12.57;9.15;;;;;;;;;;12927475;22;20026;-83
2022/09/30 00:25:52;;;;;;;14.38;9.27;;;;;;;;;;12925616;22;20046;-84
2022/09/30 00:30:59;;;;;;;12.30;9.60;;;;;;;;;;12955825;22;20025;-83
2022/09/30 00:36:00;;;;;;;12.80;8.45;;;;;;;;;;13002335;22;20050;-82
2022/09/30 00:41:02;;;;;;;12.25;8.68;;;;;;;;;;13014438;22;20030;-82
2022/09/30 00:46:04;;;;;;;10.95;8.65;;;;;;;;;;13009220;22;20003;-86
2022/09/30 00:51:06;;;;;;;12.88;9.35;;;;;;;;;;13033381;22;20012;-85
2022/09/30 00:56:09;;;;;;;12.27;8.40;;;;;;;;;;13032304;22;20027;-88
2022/09/30 01:06:36;;;;;;;19.55;8.30;;;;;;;;;;12718013;22;20903;-85
2022/09/30 01:11:37;;;;;;;17.42;8.38;;;;;;;;;;13033974;22;20069;-85
2022/09/30 01:16:59;;;;;;;11.95;7.65;;;;;;;;;;13015208;22;20015;-86
2022/09/30 01:22:06;;;;;;;30.33;8.32;;;;;;;;;;12999391;22;20011;-86
2022/09/30 01:27:16;;;;;;;10.35;7.10;;;;;;;;;;13006634;22;20019;-85
2022/09/30 01:32:25;;;;;;;10.70;7.63;;;;;;;;;;13003610;22;20096;-87
2022/09/30 01:37:28;;;;;;;29.83;7.85;;;;;;;;;;13005288;22;20084;-84
2022/09/30 01:42:44;;;;;;;11.02;6.93;;;;;;;;;;13034598;22;20054;-85
2022/09/30 01:47:48;;;;;;;14.05;7.47;;;;;;;;;;13018995;22;20000;-87
2022/09/30 01:53:05;;;;;;;9.73;6.72;;;;;;;;;;13021746;22;20007;-88
2022/09/30 01:58:28;;;;;;;8.43;6.38;;;;;;;;;;13044364;22;20006;-86
2022/09/30 02:03:33;;;;;;;27.83;8.32;;;;;;;;;;13039135;22;20019;-83
2022/09/30 02:09:04;;;;;;;47.55;10.27;;;;;;;;;;12930042;23;20379;-81
2022/09/30 02:14:10;;;;;;;39.45;10.70;;;;;;;;;;12886692;23;20024;-82
2022/09/30 02:19:44;;;;;;;25.25;8.93;;;;;;;;;;12925025;22;20012;-83
2022/09/30 02:24:48;;;;;;;43.20;11.18;;;;;;;;;;12932753;23;20015;-82
2022/09/30 02:29:54;;;;;;;30.27;9.55;;;;;;;;;;12954937;22;20024;-85
2022/09/30 02:35:09;;;;;;;11.18;7.18;;;;;;;;;;12956738;22;20024;-88
2022/09/30 02:40:47;;;;;;;13.23;7.80;;;;;;;;;;12935674;23;20031;-87
2022/09/30 02:51:39;;;;;;;9.40;7.53;;;;;;;;;;12766930;22;20007;-85
2022/09/30 02:57:01;;;;;;;18.63;8.38;;;;;;;;;;13018862;22;20063;-87
2022/09/30 03:02:02;;;;;;;9.25;7.90;;;;;;;;;;12969448;22;20024;-83
2022/09/30 03:07:03;;;;;;;16.30;8.52;;;;;;;;;;13024521;22;20000;-84
2022/09/30 03:12:16;;;;;;;25.98;8.73;;;;;;;;;;13040726;22;20018;-81
2022/09/30 03:17:28;;;;;;;87.63;12.35;;;;;;;;;;13039188;22;20030;-82
2022/09/30 03:22:30;;;;;;;26.98;8.32;;;;;;;;;;13025286;22;20038;-81
2022/09/30 03:27:41;;;;;;;62.55;11.38;;;;;;;;;;13024480;22;20007;-86
2022/09/30 03:32:48;;;;;;;46.55;10.27;;;;;;;;;;13039864;22;20295;-78
2022/09/30 03:38:07;;;;;;;33.55;10.40;;;;;;;;;;13039751;22;19995;-80
2022/09/30 03:43:07;;;;;;;10.20;7.82;;;;;;;;;;13024938;22;20012;-82
2022/09/30 03:48:11;;;;;;;18.25;8.57;;;;;;;;;;12981238;22;20095;-82
2022/09/30 03:53:12;;;;;;;15.40;7.13;;;;;;;;;;12955983;22;20022;-90
2022/09/30 03:58:14;;;;;;;56.10;10.15;;;;;;;;;;12988829;22;20018;-85
2022/09/30 04:03:18;;;;;;;111.60;13.83;;;;;;;;;;12998629;22;20006;-86
2022/09/30 04:08:19;;;;;;;64.90;10.82;;;;;;;;;;12986907;22;20421;-86
2022/09/30 04:13:20;;;;;;;13.93;6.85;;;;;;;;;;12987386;22;20123;-84
2022/09/30 04:18:22;;;;;;;87.00;14.73;;;;;;;;;;12992736;22;20007;-88
2022/09/30 04:23:29;;;;;;;50.25;12.40;;;;;;;;;;12978852;22;21521;-85
2022/09/30 04:28:34;;;;;;;64.18;13.05;;;;;;;;;;12920639;22;20032;-81
2022/09/30 04:33:37;;;;;;;15.77;8.30;;;;;;;;;;12921780;22;20024;-87
2022/09/30 04:38:38;;;;;;;;;;;;;;;;;;12909262;23;20016;-81
2022/09/30 04:43:43;;;;;;;76.97;11.82;;;;;;;;;;12825146;23;19912;-83
2022/09/30 04:48:44;;;;;;;48.13;10.55;;;;;;;;;;12882241;23;20099;-80
2022/09/30 04:53:45;;;;;;;10.68;6.93;;;;;;;;;;12871546;23;20032;-79
2022/09/30 04:58:46;;;;;;;13.63;7.15;;;;;;;;;;12884684;23;20020;-82
2022/09/30 05:03:49;;;;;;;23.98;7.50;;;;;;;;;;12899660;23;20021;-81
2022/09/30 05:08:49;;;;;;;48.45;11.02;;;;;;;;;;12893006;22;20076;-82
2022/09/30 05:13:56;;;;;;;19.20;8.27;;;;;;;;;;12908426;22;20104;-82
2022/09/30 05:18:56;;;;;;;31.45;9.13;;;;;;;;;;12879138;23;20075;-84
2022/09/30 05:23:58;;;;;;;24.90;9.35;;;;;;;;;;12881231;22;19997;-82
2022/09/30 05:29:01;;;;;;;12.65;6.65;;;;;;;;;;12910626;22;20011;-84
2022/09/30 05:34:01;;;;;;;38.60;9.15;;;;;;;;;;12869439;23;20025;-83
2022/09/30 05:39:02;;;;;;;34.38;8.90;;;;;;;;;;12866947;23;20131;-80
2022/09/30 05:44:08;;;;;;;20.20;9.13;;;;;;;;;;12885782;23;20028;-84
2022/09/30 05:49:10;;;;;;;28.05;9.02;;;;;;;;;;12892051;22;20007;-83
2022/09/30 05:54:11;;;;;;;41.80;8.25;;;;;;;;;;12836180;23;20032;-83
2022/09/30 05:59:12;;;;;;;19.05;8.85;;;;;;;;;;12865349;23;20016;-85
2022/09/30 06:04:13;;;;;;;25.13;9.55;;;;;;;;;;12884331;23;20008;-84
2022/09/30 06:09:14;;;;;;;66.35;13.13;;;;;;;;;;12859011;23;20005;-84
2022/09/30 06:14:18;;;;;;;51.00;11.35;;;;;;;;;;12862665;23;20031;-83
2022/09/30 06:19:21;;;;;;;31.77;10.18;;;;;;;;;;12867692;23;20009;-82
2022/09/30 06:24:28;;;;;;;18.92;9.70;;;;;;;;;;12834838;22;20020;-82
2022/09/30 06:29:28;;;;;;;35.53;10.88;;;;;;;;;;12872987;23;20087;-82
2022/09/30 06:34:28;;;;;;;23.57;8.90;;;;;;;;;;12834801;23;20035;-81
2022/09/30 06:39:29;;;;;;;11.85;7.97;;;;;;;;;;12879940;23;20250;-80
2022/09/30 06:44:36;;;;;;;12.13;8.13;;;;;;;;;;12902017;23;20016;-82
2022/09/30 06:49:36;;;;;;;18.38;9.15;;;;;;;;;;12899355;22;20260;-81
2022/09/30 06:54:37;;;;;;;28.73;10.75;;;;;;;;;;12904928;22;20028;-81
2022/09/30 06:59:38;;;;;;;38.92;11.20;;;;;;;;;;12884702;23;20004;-80
2022/09/30 07:04:40;;;;;;;35.73;9.13;;;;;;;;;;12855975;23;20001;-81
2022/09/30 07:09:42;;;;;;;12.75;8.13;;;;;;;;;;12828917;23;20028;-78
2022/09/30 07:14:45;;;;;;;17.73;8.45;;;;;;;;;;12832798;23;20029;-78
2022/09/30 07:19:46;;;;;;;16.13;8.00;;;;;;;;;;12820632;23;20092;-81
2022/09/30 07:24:48;;;;;;;11.50;8.77;;;;;;;;;;12793317;23;20056;-79
2022/09/30 07:29:50;;;;;;;11.50;7.65;;;;;;;;;;12811455;23;20248;-79
2022/09/30 07:34:55;;;;;;;14.50;6.90;;;;;;;;;;12798070;23;20102;-77
2022/09/30 07:39:58;;;;;;;;;;;;;;;;;;12858193;23;20020;-81
2022/09/30 07:44:59;;;;;;;12.93;7.32;;;;;;;;;;12866726;22;19908;-81
2022/09/30 07:50:01;;;;;;;14.85;7.70;;;;;;;;;;12841083;23;20009;-80
2022/09/30 07:55:02;;;;;;;10.23;7.75;;;;;;;;;;12870099;23;20016;-81
2022/09/30 08:00:03;;;;;;;15.98;8.20;;;;;;;;;;12891330;23;20016;-81
2022/09/30 08:05:11;;;;;;;9.80;7.20;;;;;;;;;;12882975;23;20093;-84
2022/09/30 08:10:13;;;;;;;11.70;6.95;;;;;;;;;;12903287;23;20009;-81
2022/09/30 08:15:14;;;;;;;10.02;6.93;;;;;;;;;;12911437;23;20001;-80
2022/09/30 08:20:15;;;;;;;11.73;8.63;;;;;;;;;;12914336;23;20149;-82
2022/09/30 08:25:17;;;;;;;14.13;8.35;;;;;;;;;;12914002;23;20240;-84
2022/09/30 08:30:19;;;;;;;;;;;;;;;;;;12914410;23;20000;-81
2022/09/30 08:35:21;;;;;;;15.43;10.40;;;;;;;;;;12913125;22;19911;-83
2022/09/30 08:40:28;;;;;;;14.53;9.57;;;;;;;;;;12915190;23;20020;-80
2022/09/30 08:45:51;;;;;;;12.27;9.75;;;;;;;;;;12918506;23;20044;-81
2022/09/30 08:51:02;;;;;;;12.35;9.35;;;;;;;;;;12915736;23;20048;-82
2022/09/30 08:56:03;;;;;;;12.95;9.77;;;;;;;;;;12882944;23;20028;-81
2022/09/30 09:01:23;;;;;;;11.23;8.40;;;;;;;;;;12877682;23;20047;-80
2022/09/30 09:06:26;;;;;;;12.18;9.15;;;;;;;;;;12918544;22;20023;-80
2022/09/30 09:11:54;;;;;;;9.98;8.43;;;;;;;;;;12981215;22;20447;-81
2022/09/30 09:17:06;;;;;;;10.50;8.80;;;;;;;;;;12979595;22;20023;-77
2022/09/30 09:22:08;;;;;;;12.15;10.18;;;;;;;;;;12985284;22;20012;-79
2022/09/30 09:27:32;;;;;;;13.43;9.82;;;;;;;;;;12987801;22;20475;-78
2022/09/30 09:32:35;;;;;;;11.60;9.52;;;;;;;;;;13007916;22;20034;-80
2022/09/30 09:43:19;;;;;;;14.20;10.88;;;;;;;;;;13046344;22;20039;-80
2022/09/30 09:48:19;;;;;;;14.20;11.93;;;;;;;;;;13026060;22;20011;-81
2022/09/30 09:53:44;;;;;;;13.50;11.27;;;;;;;;;;12936417;22;20019;-80
2022/09/30 09:59:04;;;;;;;14.15;11.32;;;;;;;;;;12997807;22;20343;-80
2022/09/30 10:04:22;;;;;;;13.60;11.55;;;;;;;;;;13041471;22;20015;-78
2022/09/30 10:09:24;;;;;;;15.88;11.13;;;;;;;;;;13043328;22;20016;-79
2022/09/30 10:14:25;;;;;;;16.63;12.02;;;;;;;;;;13031213;22;21173;-78
2022/09/30 10:19:26;;;;;;;16.45;12.05;;;;;;;;;;12983995;22;20079;-81
2022/09/30 10:24:28;;;;;;;15.52;11.75;;;;;;;;;;12981159;22;20007;-80
2022/09/30 10:29:32;;;;;;;17.63;12.00;;;;;;;;;;12984833;22;20046;-79
2022/09/30 10:34:34;;;;;;;16.23;11.38;;;;;;;;;;12984890;22;20023;-83
2022/09/30 10:39:41;;;;;;;13.38;10.25;;;;;;;;;;12984887;22;20157;-82
2022/09/30 10:45:10;;;;;;;12.82;9.60;;;;;;;;;;12992581;22;20067;-81
2022/09/30 10:50:12;;;;;;;13.73;11.32;;;;;;;;;;12987683;22;20060;-79
2022/09/30 10:55:21;;;;;;;12.68;9.93;;;;;;;;;;12991245;22;20031;-85
2022/09/30 11:00:23;;;;;;;9.05;8.15;;;;;;;;;;13001586;22;20444;-81
2022/09/30 11:05:35;;;;;;;11.30;10.07;;;;;;;;;;13005319;22;20047;-80
2022/09/30 11:10:42;;;;;;;10.32;8.73;;;;;;;;;;12993569;22;20643;-79
2022/09/30 11:16:09;;;;;;;10.13;8.95;;;;;;;;;;12987591;22;20030;-80
2022/09/30 11:21:17;;;;;;;9.90;8.57;;;;;;;;;;12982537;22;20026;-79
2022/09/30 11:26:24;;;;;;;9.70;8.02;;;;;;;;;;12982923;22;20035;-80
2022/09/30 11:32:00;;;;;;;8.20;5.57;;;;;;;;;;12986432;22;20004;-80
2022/09/30 11:37:11;;;;;;;6.72;5.65;;;;;;;;;;12849658;22;20024;-79
2022/09/30 11:42:27;;;;;;;8.60;6.50;;;;;;;;;;12989291;22;20533;-80
2022/09/30 11:47:43;;;;;;;8.85;7.60;;;;;;;;;;12988773;22;20424;-80
2022/09/30 11:53:20;;;;;;;9.02;7.40;;;;;;;;;;12987463;22;20062;-80
2022/09/30 11:58:23;;;;;;;6.40;5.35;;;;;;;;;;12820554;22;20029;-79
2022/09/30 12:03:26;;;;;;;5.30;4.80;;;;;;;;;;12996354;22;20007;-78
2022/09/30 12:08:26;;;;;;;3.40;3.10;;;;;;;;;;13025929;22;19991;-82
2022/09/30 12:13:30;;;;;;;4.57;4.00;;;;;;;;;;13034508;22;20019;-79
2022/09/30 12:18:45;;;;;;;5.18;4.65;;;;;;;;;;13042854;22;20276;-79
2022/09/30 12:23:48;;;;;;;4.63;4.13;;;;;;;;;;13042142;22;20031;-80
2022/09/30 12:34:39;;;;;;;6.07;5.20;;;;;;;;;;12986004;22;20378;-81
2022/09/30 12:39:46;;;;;;;5.55;4.65;;;;;;;;;;12980837;22;20011;-80
2022/09/30 12:45:08;;;;;;;6.03;4.40;;;;;;;;;;12980126;22;20026;-81
2022/09/30 12:50:15;;;;;;;5.88;4.40;;;;;;;;;;12989043;22;20019;-83
2022/09/30 12:55:30;;;;;;;4.57;4.20;;;;;;;;;;12996944;22;21092;-87
2022/09/30 13:00:33;;;;;;;7.20;5.63;;;;;;;;;;12998065;22;20058;-84
2022/09/30 13:05:45;;;;;;;6.43;5.22;;;;;;;;;;13010993;22;20015;-83
2022/09/30 13:11:02;;;;;;;6.13;4.82;;;;;;;;;;12992666;22;20019;-80
2022/09/30 13:16:05;;;;;;;6.53;4.68;;;;;;;;;;13044861;22;20012;-82
2022/09/30 13:21:20;;;;;;;5.40;3.95;;;;;;;;;;13045915;22;20059;-81
2022/09/30 13:26:27;;;;;;;7.07;4.57;;;;;;;;;;13041979;22;20048;-77
2022/09/30 13:31:30;;;;;;;6.18;5.57;;;;;;;;;;13040766;22;20011;-79
2022/09/30 13:36:39;;;;;;;7.93;5.93;;;;;;;;;;13037420;22;20043;-81
2022/09/30 13:41:42;;;;;;;6.07;5.47;;;;;;;;;;13028900;22;20015;-79
2022/09/30 13:46:48;;;;;;;6.18;5.00;;;;;;;;;;13034152;22;20106;-80
2022/09/30 13:51:52;;;;;;;7.00;5.50;;;;;;;;;;13005247;22;20016;-78
2022/09/30 13:56:57;;;;;;;8.02;5.68;;;;;;;;;;12986436;22;20019;-78
2022/09/30 14:02:15;;;;;;;5.55;4.80;;;;;;;;;;12995485;22;20098;-77
2022/09/30 14:07:36;;;;;;;6.82;5.30;;;;;;;;;;13018099;22;20026;-79
2022/09/30 14:12:41;;;;;;;7.20;6.05;;;;;;;;;;13010967;22;20028;-78
2022/09/30 14:18:00;;;;;;;5.47;4.88;;;;;;;;;;12995780;22;20099;-78
2022/09/30 14:23:01;;;;;;;4.78;4.18;;;;;;;;;;13006625;22;20007;-81
2022/09/30 14:28:06;;;;;;;4.30;3.90;;;;;;;;;;12988405;22;20440;-80
2022/09/30 14:33:10;;;;;;;5.38;4.00;;;;;;;;;;12982733;22;20019;-81
2022/09/30 14:38:22;;;;;;;4.65;3.97;;;;;;;;;;13002753;22;20004;-81
2022/09/30 14:43:27;;;;;;;3.83;3.42;;;;;;;;;;13022789;22;20010;-78
2022/09/30 14:48:33;;;;;;;6.35;5.07;;;;;;;;;;13041209;22;19999;-79
2022/09/30 14:53:34;;;;;;;5.20;4.68;;;;;;;;;;13034149;22;20028;-80
2022/09/30 14:58:41;;;;;;;3.80;3.40;;;;;;;;;;12994520;22;20080;-79
2022/09/30 15:03:44;;;;;;;4.10;3.38;;;;;;;;;;12982533;22;20470;-78
2022/09/30 15:08:51;;;;;;;3.63;2.88;;;;;;;;;;12982324;22;20039;-81
2022/09/30 15:13:58;;;;;;;4.32;2.60;;;;;;;;;;12983087;22;20020;-81
2022/09/30 15:19:01;;;;;;;2.88;2.40;;;;;;;;;;12983184;22;20015;-78
2022/09/30 15:24:05;;;;;;;2.33;2.10;;;;;;;;;;12989216;22;20012;-81
2022/09/30 15:29:11;;;;;;;6.28;3.60;;;;;;;;;;12972663;22;20445;-81
2022/09/30 15:34:18;;;;;;;3.80;3.20;;;;;;;;;;12984125;22;20395;-82
2022/09/30 15:44:50;;;;;;;2.20;2.00;;;;;;;;;;13000615;22;20014;-86
2022/09/30 15:49:52;;;;;;;2.10;1.80;;;;;;;;;;12961176;22;20016;-80
2022/09/30 15:54:54;;;;;;;3.83;2.10;;;;;;;;;;12950926;22;20439;-78
2022/09/30 16:00:03;;;;;;;3.67;2.30;;;;;;;;;;12952669;22;20011;-80
2022/09/30 16:05:05;;;;;;;4.72;2.15;;;;;;;;;;12979932;22;20098;-78
2022/09/30 16:10:16;;;;;;;2.38;2.17;;;;;;;;;;12956035;22;20070;-81
2022/09/30 16:15:20;;;;;;;3.53;2.30;;;;;;;;;;12982744;22;20022;-79
2022/09/30 16:20:23;;;;;;;3.58;2.88;;;;;;;;;;13002527;22;20016;-78
2022/09/30 16:25:32;;;;;;;4.65;3.10;;;;;;;;;;13039086;22;20004;-79
2022/09/30 16:30:41;;;;;;;3.40;2.80;;;;;;;;;;13040659;22;20007;-79
2022/09/30 16:35:46;;;;;;;3.28;2.58;;;;;;;;;;12989655;22;20332;-78
2022/09/30 16:40:50;;;;;;;4.03;3.10;;;;;;;;;;12982425;22;20461;-78
2022/09/30 16:45:52;;;;;;;8.32;5.38;;;;;;;;;;12978206;22;20328;-78
2022/09/30 16:51:05;;;;;;;5.82;4.70;;;;;;;;;;12981042;22;20008;-79
2022/09/30 16:56:18;;;;;;;6.27;4.43;;;;;;;;;;12977111;22;20099;-78
2022/09/30 17:01:23;;;;;;;5.13;3.75;;;;;;;;;;12953261;22;20047;-79
2022/09/30 17:06:25;;;;;;;5.03;3.83;;;;;;;;;;12979850;22;20018;-79
2022/09/30 17:11:30;;;;;;;5.43;4.20;;;;;;;;;;12979898;22;20078;-78
2022/09/30 17:16:32;;;;;;;4.93;4.05;;;;;;;;;;13007899;22;20101;-78
2022/09/30 17:21:38;;;;;;;7.40;4.47;;;;;;;;;;13043568;22;19998;-82
2022/09/30 17:26:42;;;;;;;7.07;5.43;;;;;;;;;;13042312;22;20000;-80
2022/09/30 17:31:43;;;;;;;7.43;5.90;;;;;;;;;;13044173;22;20020;-81
2022/09/30 17:36:45;;;;;;;8.25;5.45;;;;;;;;;;13001748;22;20023;-80
2022/09/30 17:47:08;;;;;;;8.25;6.07;;;;;;;;;;12992962;22;20038;-81
2022/09/30 17:52:13;;;;;;;9.63;6.85;;;;;;;;;;12977334;22;20016;-84
2022/09/30 17:57:17;;;;;;;10.10;7.85;;;;;;;;;;12982347;22;20514;-80
2022/09/30 18:02:18;;;;;;;10.70;8.68;;;;;;;;;;12986292;22;20485;-80
2022/09/30 18:07:22;;;;;;;14.23;10.03;;;;;;;;;;12957218;22;20020;-79
2022/09/30 18:12:24;;;;;;;14.20;9.75;;;;;;;;;;12987368;22;20043;-82
2022/09/30 18:17:26;;;;;;;16.80;10.93;;;;;;;;;;12990340;22;20102;-81
2022/09/30 18:22:26;;;;;;;16.25;10.55;;;;;;;;;;12977048;22;20019;-82
2022/09/30 18:27:28;;;;;;;17.97;11.50;;;;;;;;;;12977623;22;20018;-81
2022/09/30 18:32:29;;;;;;;13.70;10.83;;;;;;;;;;12997548;22;20757;-80
2022/09/30 18:37:32;;;;;;;14.75;10.27;;;;;;;;;;12963245;22;20070;-81
2022/09/30 18:42:36;;;;;;;18.10;11.90;;;;;;;;;;13041114;22;20044;-80
2022/09/30 18:47:41;;;;;;;17.17;11.32;;;;;;;;;;13045214;22;20000;-84
2022/09/30 18:52:42;;;;;;;17.25;11.15;;;;;;;;;;13018419;22;20027;-81
2022/09/30 18:57:47;;;;;;;15.27;10.32;;;;;;;;;;13045738;22;19992;-84
2022/09/30 19:02:50;;;;;;;15.60;9.98;;;;;;;;;;13019612;22;20023;-80
2022/09/30 19:07:56;;;;;;;14.65;10.88;;;;;;;;;;12996268;22;20392;-86
2022/09/30 19:13:00;;;;;;;12.98;9.98;;;;;;;;;;12992727;22;20026;-87
2022/09/30 19:18:04;;;;;;;13.90;10.13;;;;;;;;;;12990926;22;20447;-81
2022/09/30 19:23:09;;;;;;;11.85;8.80;;;;;;;;;;12989973;22;20004;-82
2022/09/30 19:28:13;;;;;;;13.70;9.50;;;;;;;;;;12998100;22;20016;-83
2022/09/30 19:33:18;;;;;;;14.70;11.00;;;;;;;;;;13009961;22;20016;-82
2022/09/30 19:38:19;;;;;;;15.30;10.93;;;;;;;;;;12985613;22;20015;-77
2022/09/30 19:43:19;;;;;;;24.58;16.38;;;;;;;;;;12982788;22;20035;-81
2022/09/30 19:48:22;;;;;;;18.45;12.73;;;;;;;;;;12994393;22;20043;-79
2022/09/30 19:53:24;;;;;;;13.82;10.70;;;;;;;;;;13004260;22;19996;-79
2022/09/30 19:58:27;;;;;;;16.40;11.85;;;;;;;;;;13018146;22;20015;-82
2022/09/30 20:03:31;;;;;;;14.30;10.50;;;;;;;;;;13043117;22;20012;-85
2022/09/30 20:08:33;;;;;;;15.73;10.35;;;;;;;;;;12998971;22;20062;-84
2022/09/30 20:13:35;;;;;;;13.52;9.73;;;;;;;;;;12964371;22;20023;-82
2022/09/30 20:18:35;;;;;;;15.32;10.50;;;;;;;;;;12965185;22;20019;-83
2022/09/30 20:23:37;;;;;;;11.25;8.95;;;;;;;;;;12978422;22;20125;-83
2022/09/30 20:28:40;;;;;;;12.75;9.43;;;;;;;;;;13005617;22;20068;-84
2022/09/30 20:33:41;;;;;;;15.50;11.32;;;;;;;;;;13035178;22;20091;-83
2022/09/30 20:38:42;;;;;;;17.27;12.13;;;;;;;;;;13040544;22;20011;-84
2022/09/30 20:43:48;;;;;;;15.23;11.73;;;;;;;;;;12943885;22;20015;-84
2022/09/30 20:48:54;;;;;;;15.88;11.25;;;;;;;;;;12970781;22;20023;-84
2022/09/30 20:53:57;;;;;;;15.63;10.95;;;;;;;;;;12975221;22;20019;-85
2022/09/30 20:59:01;;;;;;;15.60;10.32;;;;;;;;;;12965516;22;19998;-86
2022/09/30 21:04:02;;;;;;;11.95;8.65;;;;;;;;;;12930690;22;20004;-80
2022/09/30 21:09:04;;;;;;;12.97;8.83;;;;;;;;;;12934566;23;20008;-86
2022/09/30 21:14:06;;;;;;;9.38;6.97;;;;;;;;;;12949471;22;20279;-86
2022/09/30 21:19:09;;;;;;;9.17;6.83;;;;;;;;;;12953157;22;20012;-85
2022/09/30 21:24:13;;;;;;;9.73;7.47;;;;;;;;;;12946790;22;20094;-84
2022/09/30 21:29:21;;;;;;;9.88;6.63;;;;;;;;;;12937494;22;20091;-86
2022/09/30 21:39:42;;;;;;;12.10;7.65;;;;;;;;;;13073240;22;20015;-85
2022/09/30 21:44:47;;;;;;;10.23;7.50;;;;;;;;;;13076901;22;20015;-85
2022/09/30 21:49:48;;;;;;;12.23;7.60;;;;;;;;;;13093625;22;20010;-85
2022/09/30 21:54:54;;;;;;;11.40;6.80;;;;;;;;;;13070530;22;20007;-86
2022/09/30 21:59:58;;;;;;;8.23;7.15;;;;;;;;;;13071480;22;20430;-86
2022/09/30 22:05:12;;;;;;;9.90;7.47;;;;;;;;;;13010205;22;20019;-87
2022/09/30 22:10:17;;;;;;;10.50;7.82;;;;;;;;;;12997595;22;20058;-83
2022/09/30 22:15:23;;;;;;;10.07;7.75;;;;;;;;;;12998737;22;20039;-82
2022/09/30 22:20:23;;;;;;;;;;;;;;;;;;12992513;22;20119;-81
2022/09/30 22:25:29;;;;;;;12.27;8.90;;;;;;;;;;13000113;22;20283;-83
2022/09/30 22:30:37;;;;;;;11.30;7.93;;;;;;;;;;13032114;22;19991;-84
2022/09/30 22:41:10;;;;;;;15.57;10.05;;;;;;;;;;12806578;22;20060;-82
2022/09/30 22:46:13;;;;;;;17.30;10.27;;;;;;;;;;12986748;22;19991;-82
2022/09/30 22:51:38;;;;;;;18.75;9.90;;;;;;;;;;13033252;22;19996;-86
2022/09/30 22:56:40;;;;;;;12.38;9.32;;;;;;;;;;13010334;22;20027;-81
2022/09/30 23:01:48;;;;;;;12.95;9.10;;;;;;;;;;12966062;22;20046;-82
2022/09/30 23:06:49;;;;;;;12.55;7.68;;;;;;;;;;12926439;22;20051;-82
2022/09/30 23:11:52;;;;;;;10.60;7.00;;;;;;;;;;12924707;23;20027;-84
2022/09/30 23:16:55;;;;;;;12.70;8.77;;;;;;;;;;12925386;23;20103;-82
2022/09/30 23:21:55;;;;;;;13.00;8.60;;;;;;;;;;12923616;23;20344;-86
2022/09/30 23:26:58;;;;;;;10.60;8.13;;;;;;;;;;12953057;22;20075;-85
2022/09/30 23:32:01;;;;;;;11.90;8.27;;;;;;;;;;12923943;23;20024;-84
2022/09/30 23:37:02;;;;;;;10.63;7.85;;;;;;;;;;12979834;22;20007;-85
2022/09/30 23:42:04;;;;;;;12.07;8.18;;;;;;;;;;12955480;22;20039;-83
2022/09/30 23:47:16;;;;;;;12.82;8.88;;;;;;;;;;12981876;22;20075;-84
2022/09/30 23:52:17;;;;;;;10.27;7.68;;;;;;;;;;12979181;22;20055;-85
2022/09/30 23:57:17;;;;;;;10.55;8.00;;;;;;;;;;12954951;22;20000;-84
